Bf Caloosa — CQET — position and weather

sailwx.info

Track history (hours):
 
Tides and Currents Weather Stations Pressure Air Temp Water Temp Dewpoint Dewpoint Depression Visibility Wind Speed Wind Dir Waves Ship Positions

Bf Caloosa

Last reported at 2017-Dec-18 02:52 UTC. Time now 2017-Dec-18 11:09 UTC.
Position N 35°49' E 014°35'.

Length 130 m; draft 6.8 m.

Type: Ship. MMSI: 255805697.

Date/timePositionNaut miles runAvg speedWind from/ knotsBaromVisibWave heightAir tempDewpointWater temp
2017-Dec-18 02:52N 35°49' E 014°35'1 3.7
2017-Dec-18 02:29N 35°49' E 014°37'4 8.9
2017-Dec-18 01:59N 35°50' E 014°42'612.1
2017-Dec-18 01:28N 35°54' E 014°48'2 4.8
2017-Dec-18 01:00N 35°56' E 014°50'0 0.1
2017-Dec-18 00:27N 35°56' E 014°50'0 0.1
2017-Dec-17 23:53N 35°56' E 014°50'0 0.1
2017-Dec-17 23:29N 35°56' E 014°50'0 0.1
2017-Dec-17 23:00N 35°56' E 014°50'0 0.1
2017-Dec-17 22:27N 35°56' E 014°50'0 0.0
2017-Dec-17 21:50N 35°56' E 014°50'0 0.0
2017-Dec-17 21:16N 35°56' E 014°50'0 0.1
2017-Dec-17 20:50N 35°56' E 014°50'0 0.1
2017-Dec-17 20:30N 35°56' E 014°50'0 0.0
2017-Dec-17 19:57N 35°56' E 014°50'0 0.0
2017-Dec-17 19:28N 35°56' E 014°50'0 0.1
2017-Dec-17 18:59N 35°56' E 014°50'0 0.0
2017-Dec-17 18:30N 35°56' E 014°50'0 0.0
2017-Dec-17 17:55N 35°56' E 014°50'0 0.0
2017-Dec-17 17:26N 35°56' E 014°50'0 0.0
2017-Dec-17 16:58N 35°56' E 014°50'0 0.0
2017-Dec-17 16:30N 35°56' E 014°50'0 0.1
2017-Dec-17 16:00N 35°56' E 014°50'0 0.0
2017-Dec-17 15:30N 35°56' E 014°50'0 0.0
2017-Dec-17 14:59N 35°56' E 014°50'0 0.0
2017-Dec-17 14:29N 35°56' E 014°50'0 0.0
2017-Dec-17 14:00N 35°56' E 014°50'0 0.0
2017-Dec-17 13:30N 35°56' E 014°50'0 0.0
2017-Dec-17 12:57N 35°56' E 014°50'0 0.1
2017-Dec-17 12:30N 35°56' E 014°50'0 0.1
2017-Dec-17 11:57N 35°56' E 014°50'0 0.0
2017-Dec-17 11:30N 35°56' E 014°50'0 0.1
2017-Dec-17 10:58N 35°56' E 014°50'1 2.8
2017-Dec-17 10:30N 35°55' E 014°52'44012.1
2017-Dec-15 22:15N 37°12' E 023°51'312.9
2017-Dec-15 22:00N 37°15' E 023°53'713.0
2017-Dec-15 21:30N 37°21' E 023°57'713.3
2017-Dec-15 21:00N 37°26' E 024°02'713.1
2017-Dec-15 20:30N 37°31' E 024°07'713.0
2017-Dec-15 20:00N 37°37' E 024°11'813.4
2017-Dec-15 19:26N 37°44' E 024°15'913.4
2017-Dec-15 18:45N 37°48' E 024°25'313.5
2017-Dec-15 18:30N 37°50' E 024°29'713.5
2017-Dec-15 18:00N 37°55' E 024°35'2713.7
2017-Dec-15 16:04N 38°19' E 024°50'11613.2
2017-Dec-15 07:14N 40°01' E 026°02'413.5
2017-Dec-15 06:58N 40°01' E 026°07'13710.2
2017-Dec-14 17:32N 40°26' E 029°03'011.6
2017-Dec-14 17:30N 40°26' E 029°04'  
2017-Dec-12 01:21N 40°25' E 029°05'0 0.0
2017-Dec-10 01:58N 40°25' E 029°05'1 2.1
2017-Dec-10 01:30N 40°26' E 029°04'19 5.1
2017-Dec-09 21:45N 40°43' E 028°52'3 7.3
2017-Dec-09 21:24N 40°45' E 028°54'3 7.3
2017-Dec-09 20:58N 40°48' E 028°56'4 7.6
2017-Dec-09 20:27N 40°51' E 028°57'4 9.1
2017-Dec-09 19:59N 40°55' E 028°56'4 8.3
2017-Dec-09 19:30N 40°59' E 028°59'  
Track history (hours):
 
Tides and Currents Weather Stations Pressure Air Temp Water Temp Dewpoint Dewpoint Depression Visibility Wind Speed Wind Dir Waves Ship Positions

Bf Caloosa

Last reported at 2017-Dec-18 02:52 UTC. Time now 2017-Dec-18 11:09 UTC.
Position N 35°49' E 014°35'.

Length 130 m; draft 6.8 m.

Type: Ship. MMSI: 255805697.

Date/timePositionNaut miles runAvg speedWind from/ knotsBaromVisibWave heightAir tempDewpointWater temp
2017-Dec-18 02:52N 35°49' E 014°35'1 3.7
2017-Dec-18 02:29N 35°49' E 014°37'4 8.9
2017-Dec-18 01:59N 35°50' E 014°42'612.1
2017-Dec-18 01:28N 35°54' E 014°48'2 4.8
2017-Dec-18 01:00N 35°56' E 014°50'0 0.1
2017-Dec-18 00:27N 35°56' E 014°50'0 0.1
2017-Dec-17 23:53N 35°56' E 014°50'0 0.1
2017-Dec-17 23:29N 35°56' E 014°50'0 0.1
2017-Dec-17 23:00N 35°56' E 014°50'0 0.1
2017-Dec-17 22:27N 35°56' E 014°50'0 0.0
2017-Dec-17 21:50N 35°56' E 014°50'0 0.0
2017-Dec-17 21:16N 35°56' E 014°50'0 0.1
2017-Dec-17 20:50N 35°56' E 014°50'0 0.1
2017-Dec-17 20:30N 35°56' E 014°50'0 0.0
2017-Dec-17 19:57N 35°56' E 014°50'0 0.0
2017-Dec-17 19:28N 35°56' E 014°50'0 0.1
2017-Dec-17 18:59N 35°56' E 014°50'0 0.0
2017-Dec-17 18:30N 35°56' E 014°50'0 0.0
2017-Dec-17 17:55N 35°56' E 014°50'0 0.0
2017-Dec-17 17:26N 35°56' E 014°50'0 0.0
2017-Dec-17 16:58N 35°56' E 014°50'0 0.0
2017-Dec-17 16:30N 35°56' E 014°50'0 0.1
2017-Dec-17 16:00N 35°56' E 014°50'0 0.0
2017-Dec-17 15:30N 35°56' E 014°50'0 0.0
2017-Dec-17 14:59N 35°56' E 014°50'0 0.0
2017-Dec-17 14:29N 35°56' E 014°50'0 0.0
2017-Dec-17 14:00N 35°56' E 014°50'0 0.0
2017-Dec-17 13:30N 35°56' E 014°50'0 0.0
2017-Dec-17 12:57N 35°56' E 014°50'0 0.1
2017-Dec-17 12:30N 35°56' E 014°50'0 0.1
2017-Dec-17 11:57N 35°56' E 014°50'0 0.0
2017-Dec-17 11:30N 35°56' E 014°50'0 0.1
2017-Dec-17 10:58N 35°56' E 014°50'1 2.8
2017-Dec-17 10:30N 35°55' E 014°52'44012.1
2017-Dec-15 22:15N 37°12' E 023°51'312.9
2017-Dec-15 22:00N 37°15' E 023°53'713.0
2017-Dec-15 21:30N 37°21' E 023°57'713.3
2017-Dec-15 21:00N 37°26' E 024°02'713.1
2017-Dec-15 20:30N 37°31' E 024°07'713.0
2017-Dec-15 20:00N 37°37' E 024°11'813.4
2017-Dec-15 19:26N 37°44' E 024°15'913.4
2017-Dec-15 18:45N 37°48' E 024°25'313.5
2017-Dec-15 18:30N 37°50' E 024°29'713.5
2017-Dec-15 18:00N 37°55' E 024°35'2713.7
2017-Dec-15 16:04N 38°19' E 024°50'11613.2
2017-Dec-15 07:14N 40°01' E 026°02'413.5
2017-Dec-15 06:58N 40°01' E 026°07'13710.2
2017-Dec-14 17:32N 40°26' E 029°03'011.6
2017-Dec-14 17:30N 40°26' E 029°04'  
2017-Dec-12 01:21N 40°25' E 029°05'0 0.0
2017-Dec-10 01:58N 40°25' E 029°05'1 2.1
2017-Dec-10 01:30N 40°26' E 029°04'19 5.1
2017-Dec-09 21:45N 40°43' E 028°52'3 7.3
2017-Dec-09 21:24N 40°45' E 028°54'3 7.3
2017-Dec-09 20:58N 40°48' E 028°56'4 7.6
2017-Dec-09 20:27N 40°51' E 028°57'4 9.1
2017-Dec-09 19:59N 40°55' E 028°56'4 8.3
2017-Dec-09 19:30N 40°59' E 028°59'  

Dump ship's entire track history